createdAt,value
2022-09-07T00:01:18.053Z,48.10
2022-09-07T00:03:45.689Z,48.20
2022-09-07T00:06:15.054Z,48.05
2022-09-07T00:08:43.747Z,48.11
2022-09-07T00:11:14.585Z,48.05
2022-09-07T00:13:44.705Z,47.95
2022-09-07T00:16:16.169Z,48.24
2022-09-07T00:18:46.334Z,48.51
2022-09-07T00:21:17.966Z,48.29
2022-09-07T00:23:47.569Z,48.30
2022-09-07T00:26:18.866Z,48.38
2022-09-07T00:28:46.995Z,48.33
2022-09-07T00:31:17.739Z,48.04
2022-09-07T00:33:47.964Z,48.20
2022-09-07T00:36:18.065Z,47.98
2022-09-07T00:38:45.517Z,48.25
2022-09-07T00:41:13.404Z,47.99
2022-09-07T00:43:44.906Z,48.03
2022-09-07T00:46:16.288Z,48.13
2022-09-07T00:48:53.371Z,48.06
2022-09-07T00:51:29.366Z,47.98
2022-09-07T00:54:02.951Z,48.18
2022-09-07T00:56:36.342Z,48.32
2022-09-07T00:59:04.519Z,48.18
2022-09-07T01:01:34.285Z,48.10
2022-09-07T01:04:03.215Z,48.16
2022-09-07T01:06:36.759Z,47.92
2022-09-07T01:09:08.040Z,47.87
2022-09-07T01:11:36.948Z,48.09
2022-09-07T01:14:08.006Z,48.12
2022-09-07T01:17:03.505Z,48.27
2022-09-07T01:20:03.882Z,48.24
2022-09-07T01:23:02.159Z,48.27
2022-09-07T01:25:43.006Z,48.41
2022-09-07T01:28:19.729Z,48.55
2022-09-07T01:30:56.849Z,48.54
2022-09-07T01:33:49.549Z,48.37
2022-09-07T01:36:26.715Z,48.22
2022-09-07T01:38:59.033Z,48.23
2022-09-07T01:41:35.878Z,48.46
2022-09-07T01:44:12.598Z,48.17
2022-09-07T01:46:46.362Z,48.40
2022-09-07T01:49:21.750Z,48.46
2022-09-07T01:51:55.774Z,48.39
2022-09-07T01:54:32.336Z,48.58
2022-09-07T01:57:06.566Z,48.62
2022-09-07T01:59:43.248Z,48.72
2022-09-07T02:02:16.706Z,48.63
2022-09-07T02:04:52.965Z,48.39
2022-09-07T02:07:27.986Z,48.50
2022-09-07T02:10:02.129Z,48.64
2022-09-07T02:12:38.934Z,48.75
2022-09-07T02:15:15.483Z,48.67
2022-09-07T02:17:49.620Z,48.63
2022-09-07T02:20:24.346Z,48.73
2022-09-07T02:23:05.400Z,48.71
2022-09-07T02:25:41.026Z,48.41
2022-09-07T02:28:14.662Z,48.66
2022-09-07T02:30:44.411Z,48.63
2022-09-07T02:33:12.032Z,48.72
2022-09-07T02:35:39.622Z,48.67
2022-09-07T02:38:08.319Z,48.69
2022-09-07T02:40:36.296Z,48.74
2022-09-07T02:43:08.615Z,48.23
2022-09-07T02:45:59.773Z,48.52
2022-09-07T02:48:42.047Z,48.50
2022-09-07T02:51:18.286Z,48.35
2022-09-07T02:54:27.317Z,48.52
2022-09-07T02:57:10.455Z,48.46
2022-09-07T02:59:56.313Z,48.61
2022-09-07T03:02:35.115Z,48.79
2022-09-07T03:05:12.968Z,48.60
2022-09-07T03:07:51.420Z,49.48
2022-09-07T03:10:19.441Z,49.38
2022-09-07T03:12:49.989Z,49.67
2022-09-07T03:15:21.512Z,50.12
2022-09-07T03:17:50.827Z,50.20
2022-09-07T03:20:19.694Z,50.21
2022-09-07T03:22:50.339Z,50.37
2022-09-07T03:25:19.042Z,50.69
2022-09-07T03:27:46.467Z,50.50
2022-09-07T03:30:14.825Z,50.60
2022-09-07T03:32:42.441Z,50.62
2022-09-07T03:35:14.321Z,50.95
2022-09-07T03:37:42.039Z,50.88
2022-09-07T03:40:12.184Z,51.15
2022-09-07T03:42:39.990Z,51.52
2022-09-07T03:45:09.665Z,51.42
2022-09-07T03:47:38.135Z,51.77
2022-09-07T03:50:07.322Z,51.38
2022-09-07T03:52:37.154Z,51.42
2022-09-07T03:55:05.680Z,51.53
2022-09-07T03:57:33.067Z,51.95
2022-09-07T04:00:00.457Z,52.27
2022-09-07T04:02:27.969Z,52.35
2022-09-07T04:04:55.322Z,52.10
2022-09-07T04:07:22.738Z,52.37
2022-09-07T04:09:51.489Z,52.60
2022-09-07T04:12:18.899Z,52.41
2022-09-07T04:14:46.444Z,52.33
2022-09-07T04:17:13.802Z,52.47
2022-09-07T04:19:41.250Z,52.91
2022-09-07T04:22:08.604Z,53.31
2022-09-07T04:24:35.973Z,53.23
2022-09-07T04:27:04.824Z,53.61
2022-09-07T04:29:32.250Z,53.87
2022-09-07T04:31:59.654Z,53.27
2022-09-07T04:34:27.210Z,53.14
2022-09-07T04:36:54.498Z,53.31
2022-09-07T04:39:21.839Z,53.25
2022-09-07T04:41:49.169Z,52.91
2022-09-07T04:44:17.933Z,53.33
2022-09-07T04:46:45.379Z,53.12
2022-09-07T04:49:12.802Z,52.83
2022-09-07T04:51:42.899Z,53.06
2022-09-07T04:54:11.533Z,53.03
2022-09-07T04:56:39.438Z,53.08
2022-09-07T04:59:06.915Z,53.10
2022-09-07T05:01:35.801Z,53.16
2022-09-07T05:04:04.803Z,53.29
2022-09-07T05:06:32.614Z,52.85
2022-09-07T05:09:00.764Z,53.13
2022-09-07T05:11:29.911Z,53.16
2022-09-07T05:13:58.106Z,52.65
2022-09-07T05:16:27.111Z,52.79
2022-09-07T05:18:58.462Z,52.74
2022-09-07T05:21:28.916Z,52.64
2022-09-07T05:23:58.813Z,52.49
2022-09-07T05:26:28.909Z,52.63
2022-09-07T05:31:43.853Z,53.90
2022-09-07T05:36:55.715Z,54.63
2022-09-07T05:39:23.194Z,54.85
2022-09-07T05:41:50.535Z,54.69
2022-09-07T05:47:05.764Z,54.94
2022-09-07T05:49:34.608Z,55.47
2022-09-07T05:52:02.264Z,55.63
2022-09-07T05:54:29.561Z,55.87
2022-09-07T05:56:56.919Z,56.27
2022-09-07T05:59:24.258Z,56.33
2022-09-07T06:01:51.727Z,56.46
2022-09-07T06:04:19.611Z,56.57
2022-09-07T06:07:11.057Z,56.40
2022-09-07T06:12:24.067Z,56.57
2022-09-07T06:14:51.426Z,56.45
2022-09-07T06:17:19.759Z,56.31
2022-09-07T06:19:47.137Z,56.08
2022-09-07T06:22:16.350Z,56.18
2022-09-07T06:24:43.752Z,56.41
2022-09-07T06:27:11.413Z,56.55
2022-09-07T06:29:38.808Z,56.89
2022-09-07T06:34:53.858Z,56.87
2022-09-07T06:37:22.672Z,56.93
2022-09-07T06:39:50.119Z,57.40
2022-09-07T06:42:17.567Z,57.22
2022-09-07T06:44:44.955Z,57.32
2022-09-07T06:47:12.440Z,57.00
2022-09-07T06:49:39.874Z,57.07
2022-09-07T06:52:07.285Z,57.03
2022-09-07T06:57:23.559Z,56.58
2022-09-07T06:59:50.954Z,56.78
2022-09-07T07:02:21.656Z,56.64
2022-09-07T07:04:50.190Z,56.76
2022-09-07T07:07:17.642Z,56.58
2022-09-07T07:09:46.422Z,56.00
2022-09-07T07:12:13.746Z,55.98
2022-09-07T07:14:44.618Z,55.40
2022-09-07T07:17:12.666Z,55.40
2022-09-07T07:19:40.074Z,55.22
2022-09-07T07:22:23.983Z,54.91
2022-09-07T07:24:56.187Z,54.80
2022-09-07T07:27:23.718Z,54.75
2022-09-07T07:29:52.445Z,54.80
2022-09-07T07:32:20.062Z,54.07
2022-09-07T07:34:47.439Z,53.73
2022-09-07T07:37:16.152Z,52.90
2022-09-07T07:42:33.934Z,52.68
2022-09-07T07:47:51.331Z,51.63
2022-09-07T07:50:34.943Z,52.04
2022-09-07T07:55:50.693Z,52.18
2022-09-07T07:58:19.909Z,52.76
2022-09-07T08:00:55.863Z,51.62
2022-09-07T08:03:25.319Z,51.23
2022-09-07T08:05:53.306Z,51.77
2022-09-07T08:08:23.340Z,50.82
2022-09-07T08:10:51.216Z,50.66
2022-09-07T08:13:21.420Z,50.11
2022-09-07T08:15:49.000Z,49.63
2022-09-07T08:18:17.609Z,48.74
2022-09-07T08:20:44.924Z,47.99
2022-09-07T08:23:12.197Z,47.67
2022-09-07T08:25:48.495Z,46.56
2022-09-07T08:28:15.762Z,45.65
2022-09-07T08:30:44.452Z,44.14
2022-09-07T08:33:11.641Z,42.83
2022-09-07T08:35:39.000Z,42.56
2022-09-07T08:38:06.427Z,42.05
2022-09-07T08:40:38.191Z,41.33
2022-09-07T08:43:19.597Z,39.64
2022-09-07T08:45:54.599Z,39.19
2022-09-07T08:48:32.187Z,38.78
2022-09-07T08:51:10.321Z,37.63
2022-09-07T08:53:46.599Z,36.72
2022-09-07T08:56:22.287Z,36.86
2022-09-07T08:58:53.209Z,36.08
2022-09-07T09:01:32.287Z,35.60
2022-09-07T09:04:17.223Z,35.57
2022-09-07T09:07:01.356Z,34.30
2022-09-07T09:09:47.024Z,33.88
2022-09-07T09:12:27.715Z,32.47
2022-09-07T09:15:16.201Z,31.81
2022-09-07T09:17:56.847Z,32.10
2022-09-07T09:20:31.598Z,31.03
2022-09-07T09:23:12.351Z,31.86
2022-09-07T09:25:51.076Z,32.44
2022-09-07T09:28:18.751Z,33.35
2022-09-07T09:30:47.905Z,33.59
2022-09-07T09:33:20.598Z,32.24
2022-09-07T09:35:50.094Z,31.84
2022-09-07T09:38:35.600Z,31.32
2022-09-07T09:41:08.769Z,30.10
2022-09-07T09:43:43.491Z,30.20
2022-09-07T09:46:23.195Z,29.15
2022-09-07T09:48:56.874Z,28.43
2022-09-07T09:54:25.986Z,28.01
2022-09-07T09:56:53.562Z,27.83
2022-09-07T10:05:33.386Z,26.84
2022-09-07T10:08:01.441Z,26.50
2022-09-07T10:10:30.175Z,25.41
2022-09-07T10:12:58.101Z,25.75
2022-09-07T10:15:39.688Z,26.24
2022-09-07T10:18:18.751Z,26.75
2022-09-07T10:20:48.091Z,27.70
2022-09-07T10:23:23.402Z,27.75
2022-09-07T10:25:51.175Z,28.16
2022-09-07T10:28:21.728Z,28.52
2022-09-07T10:31:15.278Z,28.28
2022-09-07T10:36:53.609Z,29.67
2022-09-07T10:39:27.804Z,30.13
2022-09-07T10:42:06.104Z,30.47
2022-09-07T10:44:55.444Z,31.37
2022-09-07T10:47:42.726Z,32.10
2022-09-07T10:50:24.978Z,32.45
2022-09-07T10:53:39.601Z,33.42
2022-09-07T10:56:11.512Z,33.37
2022-09-07T10:59:03.489Z,34.23
2022-09-07T11:01:48.704Z,35.11
2022-09-07T11:04:41.106Z,34.95
2022-09-07T11:07:29.143Z,35.55
2022-09-07T11:10:11.954Z,34.38
2022-09-07T11:12:44.424Z,33.09
2022-09-07T11:15:24.481Z,32.39
2022-09-07T11:17:56.938Z,32.22
2022-09-07T11:20:31.441Z,30.35
2022-09-07T11:23:12.769Z,30.24
2022-09-07T11:25:52.182Z,31.02
2022-09-07T11:28:27.520Z,31.33
2022-09-07T11:31:00.728Z,31.42
2022-09-07T11:33:35.146Z,31.24
2022-09-07T11:36:12.733Z,31.28
2022-09-07T11:38:48.261Z,31.56
2022-09-07T11:41:28.887Z,31.46
2022-09-07T11:44:06.669Z,31.95
2022-09-07T11:46:42.019Z,32.41
2022-09-07T11:49:21.228Z,32.85
2022-09-07T11:51:56.301Z,33.13
2022-09-07T11:54:38.847Z,33.11
2022-09-07T11:57:37.403Z,33.75
2022-09-07T12:00:13.813Z,33.42
2022-09-07T12:03:11.620Z,33.90
2022-09-07T12:06:11.259Z,34.42
2022-09-07T12:09:06.339Z,34.24
2022-09-07T12:12:07.139Z,34.96
2022-09-07T12:14:53.724Z,35.10
2022-09-07T12:17:43.858Z,35.05
2022-09-07T12:20:15.180Z,35.46
2022-09-07T12:23:05.266Z,35.92
2022-09-07T12:25:34.816Z,35.68
2022-09-07T12:28:02.659Z,35.83
2022-09-07T12:30:56.498Z,35.90
2022-09-07T12:33:31.784Z,35.26
2022-09-07T12:36:00.903Z,35.27
2022-09-07T12:39:26.793Z,35.99
2022-09-07T12:42:37.512Z,35.48
2022-09-07T12:45:49.259Z,36.15
2022-09-07T12:48:46.788Z,35.47
2022-09-07T12:54:28.493Z,35.62
2022-09-07T13:00:11.861Z,35.69
2022-09-07T13:03:51.130Z,36.62
2022-09-07T13:09:34.960Z,36.13
2022-09-07T13:15:37.999Z,36.18
2022-09-07T13:18:06.506Z,36.43
2022-09-07T13:20:39.155Z,36.93
2022-09-07T13:23:25.104Z,37.15
2022-09-07T13:25:59.996Z,37.59
2022-09-07T13:28:52.546Z,37.48
2022-09-07T13:31:58.597Z,38.05
2022-09-07T13:34:50.099Z,37.90
2022-09-07T13:37:22.966Z,37.67
2022-09-07T13:39:55.584Z,37.72
2022-09-07T13:42:28.758Z,37.71
2022-09-07T13:44:58.281Z,37.66
2022-09-07T13:47:45.279Z,38.05
2022-09-07T13:50:29.051Z,37.68
2022-09-07T13:53:31.022Z,37.95
2022-09-07T13:56:15.696Z,38.60
2022-09-07T13:58:47.785Z,38.41
2022-09-07T14:01:20.247Z,38.42
2022-09-07T14:03:53.682Z,38.44
2022-09-07T14:06:34.265Z,39.00
2022-09-07T14:09:06.144Z,38.60
2022-09-07T14:11:46.282Z,39.18
2022-09-07T14:14:20.207Z,39.34
2022-09-07T14:16:54.273Z,39.24
2022-09-07T14:19:25.667Z,39.42
2022-09-07T14:22:03.049Z,39.45
2022-09-07T14:24:35.175Z,38.91
2022-09-07T14:27:06.586Z,39.29
2022-09-07T14:29:37.024Z,39.10
2022-09-07T14:32:10.741Z,38.75
2022-09-07T14:34:39.471Z,38.93
2022-09-07T14:37:13.280Z,39.35
2022-09-07T14:39:44.851Z,39.10
2022-09-07T14:42:19.735Z,38.87
2022-09-07T14:44:47.480Z,39.40
2022-09-07T14:47:29.406Z,39.82
2022-09-07T14:50:05.773Z,39.63
2022-09-07T14:52:43.023Z,39.52
2022-09-07T14:55:29.566Z,39.61
2022-09-07T14:58:25.466Z,39.72
2022-09-07T15:04:01.276Z,39.42
2022-09-07T15:09:30.898Z,39.02
2022-09-07T15:12:17.795Z,39.49
2022-09-07T15:14:47.987Z,39.45
2022-09-07T15:20:40.224Z,39.52
2022-09-07T15:23:12.071Z,39.67
2022-09-07T15:25:40.849Z,39.73
2022-09-07T15:34:10.108Z,39.80
2022-09-07T15:36:40.787Z,39.11
2022-09-07T15:39:19.040Z,38.87
2022-09-07T15:41:47.725Z,39.36
2022-09-07T15:44:16.300Z,38.84
2022-09-07T15:47:42.374Z,38.93
2022-09-07T15:49:33.803Z,38.95
2022-09-07T15:52:08.442Z,39.06
2022-09-07T15:54:39.435Z,39.49
2022-09-07T15:59:54.826Z,39.32
2022-09-07T16:05:11.107Z,40.20
2022-09-07T16:10:27.357Z,40.25
2022-09-07T16:13:09.694Z,40.18
2022-09-07T16:15:45.693Z,39.89
2022-09-07T16:18:17.508Z,39.79
2022-09-07T16:20:45.936Z,39.88
2022-09-07T16:23:16.488Z,40.06
2022-09-07T16:25:56.382Z,40.83
2022-09-07T16:28:24.190Z,40.25
2022-09-07T16:30:51.519Z,40.69
2022-09-07T16:33:20.275Z,40.43
2022-09-07T16:35:59.617Z,40.53
2022-09-07T16:38:46.123Z,40.89
2022-09-07T16:41:15.386Z,40.44
2022-09-07T16:43:43.606Z,40.57
2022-09-07T16:46:14.819Z,40.79
2022-09-07T16:48:44.283Z,40.64
2022-09-07T16:51:15.598Z,40.92
2022-09-07T16:53:43.577Z,40.93
2022-09-07T16:56:13.554Z,40.94
2022-09-07T16:58:43.592Z,40.70
2022-09-07T17:01:13.035Z,40.78
2022-09-07T17:03:41.344Z,40.90
2022-09-07T17:06:13.373Z,40.66
2022-09-07T17:08:42.361Z,40.88
2022-09-07T17:11:12.665Z,40.74
2022-09-07T17:13:42.081Z,41.08
2022-09-07T17:16:12.730Z,41.23
2022-09-07T17:21:33.254Z,41.43
2022-09-07T17:24:01.710Z,41.45
2022-09-07T17:26:32.451Z,41.33
2022-09-07T17:29:00.998Z,41.44
2022-09-07T17:34:19.941Z,41.93
2022-09-07T17:36:48.777Z,41.95
2022-09-07T17:39:18.139Z,42.31
2022-09-07T17:41:46.985Z,42.24
2022-09-07T17:44:14.489Z,42.53
2022-09-07T17:46:41.844Z,42.54
2022-09-07T17:49:13.910Z,42.69
2022-09-07T17:51:41.461Z,42.94
2022-09-07T17:54:15.660Z,43.28
2022-09-07T17:56:44.074Z,43.22
2022-09-07T18:01:59.202Z,43.55
2022-09-07T18:04:27.306Z,44.12
2022-09-07T18:06:55.661Z,43.94
2022-09-07T18:09:24.466Z,44.08
2022-09-07T18:11:51.726Z,44.08
2022-09-07T18:14:19.689Z,44.14
2022-09-07T18:16:49.943Z,44.42
2022-09-07T18:19:18.874Z,44.68
2022-09-07T18:21:48.024Z,44.75
2022-09-07T18:24:19.685Z,45.01
2022-09-07T18:26:52.303Z,44.94
2022-09-07T18:29:32.310Z,45.24
2022-09-07T18:32:04.777Z,45.14
2022-09-07T18:34:35.911Z,45.40
2022-09-07T18:37:03.589Z,45.50
2022-09-07T18:39:37.628Z,45.27
2022-09-07T18:42:07.770Z,45.86
2022-09-07T18:47:29.111Z,46.08
2022-09-07T18:49:58.032Z,46.04
2022-09-07T18:55:12.997Z,46.42
2022-09-07T18:57:41.971Z,46.40
2022-09-07T19:00:12.394Z,46.56
2022-09-07T19:02:39.730Z,46.57
2022-09-07T19:07:55.929Z,46.64
2022-09-07T19:10:23.215Z,46.82
2022-09-07T19:12:51.839Z,46.81
2022-09-07T19:15:20.529Z,46.70
2022-09-07T19:17:47.822Z,46.95
2022-09-07T19:20:15.361Z,47.21
2022-09-07T19:22:42.946Z,47.68
2022-09-07T19:25:10.515Z,47.85
2022-09-07T19:27:37.892Z,47.52
2022-09-07T19:30:08.110Z,47.90
2022-09-07T19:32:35.300Z,47.69
2022-09-07T19:35:02.627Z,48.02
2022-09-07T19:37:32.244Z,48.14
2022-09-07T19:39:59.884Z,48.19
2022-09-07T19:42:27.261Z,47.64
2022-09-07T19:44:54.933Z,47.91
2022-09-07T19:47:23.931Z,47.99
2022-09-07T19:49:52.276Z,47.79
2022-09-07T19:52:19.777Z,47.85
2022-09-07T19:54:47.012Z,47.98
2022-09-07T19:57:14.219Z,47.77
2022-09-07T19:59:41.498Z,47.99
2022-09-07T20:02:09.916Z,48.02
2022-09-07T20:04:38.526Z,47.88
2022-09-07T20:07:06.592Z,47.85
2022-09-07T20:09:33.854Z,48.00
2022-09-07T20:12:02.630Z,47.44
2022-09-07T20:14:29.844Z,47.96
2022-09-07T20:16:57.299Z,48.37
2022-09-07T20:19:24.707Z,48.46
2022-09-07T20:21:55.754Z,48.28
2022-09-07T20:24:23.354Z,48.91
2022-09-07T20:26:50.582Z,48.87
2022-09-07T20:29:33.268Z,48.82
2022-09-07T20:32:01.814Z,48.97
2022-09-07T20:34:29.969Z,48.53
2022-09-07T20:36:58.694Z,49.19
2022-09-07T20:39:26.049Z,49.16
2022-09-07T20:41:53.636Z,49.07
2022-09-07T20:44:20.873Z,48.76
2022-09-07T20:46:48.208Z,49.29
2022-09-07T20:49:15.626Z,48.67
2022-09-07T20:51:42.947Z,49.08
2022-09-07T20:54:11.757Z,48.45
2022-09-07T20:56:39.073Z,49.00
2022-09-07T20:59:06.840Z,49.25
2022-09-07T21:01:35.171Z,48.99
2022-09-07T21:04:04.037Z,48.90
2022-09-07T21:06:32.874Z,49.15
2022-09-07T21:09:01.238Z,48.67
2022-09-07T21:11:32.941Z,48.80
2022-09-07T21:14:06.054Z,48.94
2022-09-07T21:16:34.372Z,49.10
2022-09-07T21:19:04.158Z,49.68
2022-09-07T21:21:38.908Z,49.17
2022-09-07T21:24:14.425Z,49.41
2022-09-07T21:26:43.032Z,49.48
2022-09-07T21:29:17.052Z,50.33
2022-09-07T21:31:44.932Z,50.22
2022-09-07T21:34:12.593Z,50.96
2022-09-07T21:36:40.128Z,51.17
2022-09-07T21:39:10.384Z,51.09
2022-09-07T21:41:39.872Z,51.19
2022-09-07T21:44:11.663Z,50.91
2022-09-07T21:46:38.958Z,50.71
2022-09-07T21:49:06.700Z,51.26
2022-09-07T21:51:34.073Z,51.29
2022-09-07T21:54:01.867Z,50.89
2022-09-07T21:56:31.235Z,50.92
2022-09-07T21:59:01.554Z,51.05
2022-09-07T22:01:31.758Z,51.75
2022-09-07T22:04:01.952Z,51.62
2022-09-07T22:06:30.991Z,52.35
2022-09-07T22:08:59.292Z,52.42
2022-09-07T22:11:28.961Z,52.05
2022-09-07T22:13:59.007Z,52.57
2022-09-07T22:16:26.539Z,53.07
2022-09-07T22:18:55.519Z,52.92
2022-09-07T22:21:25.041Z,53.15
2022-09-07T22:23:56.295Z,52.59
2022-09-07T22:26:26.101Z,53.13
2022-09-07T22:28:53.723Z,53.24
2022-09-07T22:31:24.382Z,52.84
2022-09-07T22:33:56.220Z,53.36
2022-09-07T22:36:26.069Z,53.30
2022-09-07T22:38:55.709Z,53.08
2022-09-07T22:41:26.426Z,53.75
2022-09-07T22:43:54.148Z,53.22
2022-09-07T22:46:24.160Z,53.43
2022-09-07T22:48:55.353Z,53.09
2022-09-07T22:51:26.711Z,53.05
2022-09-07T22:53:55.042Z,53.45
2022-09-07T22:56:26.580Z,53.31
2022-09-07T22:58:56.585Z,53.50
2022-09-07T23:01:26.212Z,53.05
2022-09-07T23:03:55.368Z,53.71
2022-09-07T23:06:27.717Z,54.09
2022-09-07T23:08:58.019Z,54.14
2022-09-07T23:11:25.826Z,54.15
2022-09-07T23:13:54.566Z,54.00
2022-09-07T23:16:23.141Z,53.88
2022-09-07T23:18:50.708Z,54.17
2022-09-07T23:21:20.053Z,53.68
2022-09-07T23:23:51.322Z,53.88
2022-09-07T23:26:19.354Z,54.00
2022-09-07T23:28:50.857Z,53.68
2022-09-07T23:31:18.208Z,53.95
2022-09-07T23:33:45.529Z,53.97
2022-09-07T23:36:12.951Z,53.71
2022-09-07T23:38:41.660Z,54.06
2022-09-07T23:41:08.928Z,54.33
2022-09-07T23:43:36.681Z,54.25
2022-09-07T23:46:04.045Z,54.68
2022-09-07T23:48:31.511Z,54.12
2022-09-07T23:50:58.790Z,53.94
2022-09-07T23:53:26.083Z,54.21
2022-09-07T23:55:54.623Z,53.79
2022-09-07T23:58:23.114Z,54.06
